sensor_id;sensor_type;location;lat;lon;timestamp;temperature;humidity
52731;DHT22;38624;53.242;6.974;2023-07-24T00:00:15;16.10;99.90
52731;DHT22;38624;53.242;6.974;2023-07-24T00:02:40;16.10;99.90
52731;DHT22;38624;53.242;6.974;2023-07-24T00:05:06;16.00;99.90
52731;DHT22;38624;53.242;6.974;2023-07-24T00:07:32;16.00;99.90
52731;DHT22;38624;53.242;6.974;2023-07-24T00:09:58;16.00;99.90
52731;DHT22;38624;53.242;6.974;2023-07-24T00:12:23;16.00;99.90
52731;DHT22;38624;53.242;6.974;2023-07-24T00:14:49;15.90;99.90
52731;DHT22;38624;53.242;6.974;2023-07-24T00:17:15;15.90;99.90
52731;DHT22;38624;53.242;6.974;2023-07-24T00:19:40;15.80;99.90
52731;DHT22;38624;53.242;6.974;2023-07-24T00:22:06;15.80;99.90
52731;DHT22;38624;53.242;6.974;2023-07-24T00:24:32;15.80;99.90
52731;DHT22;38624;53.242;6.974;2023-07-24T00:26:58;15.70;99.90
52731;DHT22;38624;53.242;6.974;2023-07-24T00:29:23;15.70;99.90
52731;DHT22;38624;53.242;6.974;2023-07-24T00:31:49;15.70;99.90
52731;DHT22;38624;53.242;6.974;2023-07-24T00:34:15;15.70;99.90
52731;DHT22;38624;53.242;6.974;2023-07-24T00:36:41;15.60;99.90
52731;DHT22;38624;53.242;6.974;2023-07-24T00:39:06;15.60;99.90
52731;DHT22;38624;53.242;6.974;2023-07-24T00:41:32;15.70;99.90
52731;DHT22;38624;53.242;6.974;2023-07-24T00:43:58;15.70;99.90
52731;DHT22;38624;53.242;6.974;2023-07-24T00:46:24;15.60;99.90
52731;DHT22;38624;53.242;6.974;2023-07-24T00:48:50;15.60;99.90
52731;DHT22;38624;53.242;6.974;2023-07-24T00:51:16;15.50;99.90
52731;DHT22;38624;53.242;6.974;2023-07-24T00:53:42;15.60;99.90
52731;DHT22;38624;53.242;6.974;2023-07-24T00:56:08;15.60;99.90
52731;DHT22;38624;53.242;6.974;2023-07-24T00:58:37;15.50;99.90
52731;DHT22;38624;53.242;6.974;2023-07-24T01:01:03;15.50;99.90
52731;DHT22;38624;53.242;6.974;2023-07-24T01:03:33;15.40;99.90
52731;DHT22;38624;53.242;6.974;2023-07-24T01:06:01;15.40;99.90
52731;DHT22;38624;53.242;6.974;2023-07-24T01:08:28;15.40;99.90
52731;DHT22;38624;53.242;6.974;2023-07-24T01:10:55;15.40;99.90
52731;DHT22;38624;53.242;6.974;2023-07-24T01:13:25;15.40;99.90
52731;DHT22;38624;53.242;6.974;2023-07-24T01:16:14;15.40;99.90
52731;DHT22;38624;53.242;6.974;2023-07-24T01:18:41;15.40;99.90
52731;DHT22;38624;53.242;6.974;2023-07-24T01:21:09;15.60;99.90
52731;DHT22;38624;53.242;6.974;2023-07-24T01:26:23;15.60;99.90
52731;DHT22;38624;53.242;6.974;2023-07-24T01:28:49;15.60;99.90
52731;DHT22;38624;53.242;6.974;2023-07-24T01:31:15;15.50;99.90
52731;DHT22;38624;53.242;6.974;2023-07-24T01:33:42;15.40;99.90
52731;DHT22;38624;53.242;6.974;2023-07-24T01:36:09;15.40;99.90
52731;DHT22;38624;53.242;6.974;2023-07-24T01:38:36;15.40;99.90
52731;DHT22;38624;53.242;6.974;2023-07-24T01:41:03;15.30;99.90
52731;DHT22;38624;53.242;6.974;2023-07-24T01:43:29;15.20;99.90
52731;DHT22;38624;53.242;6.974;2023-07-24T01:45:55;15.20;99.90
52731;DHT22;38624;53.242;6.974;2023-07-24T01:48:21;15.20;99.90
52731;DHT22;38624;53.242;6.974;2023-07-24T01:50:47;15.20;99.90
52731;DHT22;38624;53.242;6.974;2023-07-24T01:53:13;15.20;99.90
52731;DHT22;38624;53.242;6.974;2023-07-24T01:55:39;15.10;99.90
52731;DHT22;38624;53.242;6.974;2023-07-24T01:58:04;15.10;99.90
52731;DHT22;38624;53.242;6.974;2023-07-24T02:00:30;15.10;99.90
52731;DHT22;38624;53.242;6.974;2023-07-24T02:02:56;15.10;99.90
52731;DHT22;38624;53.242;6.974;2023-07-24T02:05:22;15.10;99.90
52731;DHT22;38624;53.242;6.974;2023-07-24T02:07:48;15.20;99.90
52731;DHT22;38624;53.242;6.974;2023-07-24T02:10:13;15.20;99.90
52731;DHT22;38624;53.242;6.974;2023-07-24T02:12:39;15.30;99.90
52731;DHT22;38624;53.242;6.974;2023-07-24T02:15:05;15.40;99.90
52731;DHT22;38624;53.242;6.974;2023-07-24T02:17:31;15.40;99.90
52731;DHT22;38624;53.242;6.974;2023-07-24T02:19:57;15.40;99.90
52731;DHT22;38624;53.242;6.974;2023-07-24T02:22:23;15.50;99.90
52731;DHT22;38624;53.242;6.974;2023-07-24T02:24:49;15.50;99.90
52731;DHT22;38624;53.242;6.974;2023-07-24T02:27:31;15.60;99.90
52731;DHT22;38624;53.242;6.974;2023-07-24T02:29:59;15.50;99.90
52731;DHT22;38624;53.242;6.974;2023-07-24T02:32:25;15.60;99.90
52731;DHT22;38624;53.242;6.974;2023-07-24T02:34:52;15.50;99.90
52731;DHT22;38624;53.242;6.974;2023-07-24T02:37:18;15.50;99.90
52731;DHT22;38624;53.242;6.974;2023-07-24T02:39:44;15.50;99.90
52731;DHT22;38624;53.242;6.974;2023-07-24T02:42:09;15.50;99.90
52731;DHT22;38624;53.242;6.974;2023-07-24T02:44:35;15.50;99.90
52731;DHT22;38624;53.242;6.974;2023-07-24T02:47:01;15.60;99.90
52731;DHT22;38624;53.242;6.974;2023-07-24T02:49:28;15.50;99.90
52731;DHT22;38624;53.242;6.974;2023-07-24T02:51:54;15.50;99.90
52731;DHT22;38624;53.242;6.974;2023-07-24T02:54:19;15.40;99.90
52731;DHT22;38624;53.242;6.974;2023-07-24T02:56:45;15.40;99.90
52731;DHT22;38624;53.242;6.974;2023-07-24T02:59:11;15.40;99.90
52731;DHT22;38624;53.242;6.974;2023-07-24T03:01:37;15.40;99.90
52731;DHT22;38624;53.242;6.974;2023-07-24T03:04:02;15.40;99.90
52731;DHT22;38624;53.242;6.974;2023-07-24T03:06:28;15.40;99.90
52731;DHT22;38624;53.242;6.974;2023-07-24T03:08:54;15.40;99.90
52731;DHT22;38624;53.242;6.974;2023-07-24T03:11:19;15.40;99.90
52731;DHT22;38624;53.242;6.974;2023-07-24T03:13:45;15.40;99.90
52731;DHT22;38624;53.242;6.974;2023-07-24T03:16:11;15.40;99.90
52731;DHT22;38624;53.242;6.974;2023-07-24T03:18:36;15.40;99.90
52731;DHT22;38624;53.242;6.974;2023-07-24T03:21:03;15.40;99.90
52731;DHT22;38624;53.242;6.974;2023-07-24T03:23:29;15.40;99.90
52731;DHT22;38624;53.242;6.974;2023-07-24T03:25:54;15.40;99.90
52731;DHT22;38624;53.242;6.974;2023-07-24T03:28:20;15.40;99.90
52731;DHT22;38624;53.242;6.974;2023-07-24T03:30:46;15.40;99.90
52731;DHT22;38624;53.242;6.974;2023-07-24T03:33:12;15.40;99.90
52731;DHT22;38624;53.242;6.974;2023-07-24T03:35:38;15.50;99.90
52731;DHT22;38624;53.242;6.974;2023-07-24T03:38:04;15.60;99.90
52731;DHT22;38624;53.242;6.974;2023-07-24T03:40:30;15.60;99.90
52731;DHT22;38624;53.242;6.974;2023-07-24T03:42:56;15.70;99.90
52731;DHT22;38624;53.242;6.974;2023-07-24T03:45:21;15.70;99.90
52731;DHT22;38624;53.242;6.974;2023-07-24T03:47:47;15.80;99.90
52731;DHT22;38624;53.242;6.974;2023-07-24T03:50:13;15.80;99.90
52731;DHT22;38624;53.242;6.974;2023-07-24T03:52:38;15.90;99.90
52731;DHT22;38624;53.242;6.974;2023-07-24T03:55:04;15.90;99.90
52731;DHT22;38624;53.242;6.974;2023-07-24T03:57:30;16.00;99.90
52731;DHT22;38624;53.242;6.974;2023-07-24T03:59:56;16.00;99.90
52731;DHT22;38624;53.242;6.974;2023-07-24T04:02:23;16.10;99.90
52731;DHT22;38624;53.242;6.974;2023-07-24T04:04:48;16.10;99.90
52731;DHT22;38624;53.242;6.974;2023-07-24T04:07:14;16.20;99.90
52731;DHT22;38624;53.242;6.974;2023-07-24T04:09:40;16.20;99.90
52731;DHT22;38624;53.242;6.974;2023-07-24T04:12:05;16.20;99.90
52731;DHT22;38624;53.242;6.974;2023-07-24T04:14:31;16.30;99.90
52731;DHT22;38624;53.242;6.974;2023-07-24T04:16:57;16.30;99.90
52731;DHT22;38624;53.242;6.974;2023-07-24T04:19:23;16.30;99.90
52731;DHT22;38624;53.242;6.974;2023-07-24T04:21:48;16.40;99.90
52731;DHT22;38624;53.242;6.974;2023-07-24T04:24:14;16.40;99.90
52731;DHT22;38624;53.242;6.974;2023-07-24T04:26:39;16.50;99.90
52731;DHT22;38624;53.242;6.974;2023-07-24T04:29:06;16.50;99.90
52731;DHT22;38624;53.242;6.974;2023-07-24T04:31:32;16.50;99.90
52731;DHT22;38624;53.242;6.974;2023-07-24T04:33:58;16.60;99.90
52731;DHT22;38624;53.242;6.974;2023-07-24T04:36:24;16.60;99.90
52731;DHT22;38624;53.242;6.974;2023-07-24T04:38:49;16.60;99.90
52731;DHT22;38624;53.242;6.974;2023-07-24T04:41:15;16.60;99.90
52731;DHT22;38624;53.242;6.974;2023-07-24T04:43:41;16.70;99.90
52731;DHT22;38624;53.242;6.974;2023-07-24T04:46:07;16.70;99.90
52731;DHT22;38624;53.242;6.974;2023-07-24T04:48:32;16.70;99.90
52731;DHT22;38624;53.242;6.974;2023-07-24T04:50:58;16.70;99.90
52731;DHT22;38624;53.242;6.974;2023-07-24T04:53:24;16.70;99.90
52731;DHT22;38624;53.242;6.974;2023-07-24T04:55:49;16.70;99.90
52731;DHT22;38624;53.242;6.974;2023-07-24T04:58:15;16.70;99.90
52731;DHT22;38624;53.242;6.974;2023-07-24T05:00:41;16.70;99.90
52731;DHT22;38624;53.242;6.974;2023-07-24T05:03:06;16.80;99.90
52731;DHT22;38624;53.242;6.974;2023-07-24T05:05:36;16.80;99.90
52731;DHT22;38624;53.242;6.974;2023-07-24T05:08:02;16.80;99.90
52731;DHT22;38624;53.242;6.974;2023-07-24T05:10:28;16.80;99.90
52731;DHT22;38624;53.242;6.974;2023-07-24T05:12:54;16.80;99.90
52731;DHT22;38624;53.242;6.974;2023-07-24T05:15:22;16.80;99.90
52731;DHT22;38624;53.242;6.974;2023-07-24T05:17:48;16.80;99.90
52731;DHT22;38624;53.242;6.974;2023-07-24T05:20:14;16.80;99.90
52731;DHT22;38624;53.242;6.974;2023-07-24T05:22:39;16.80;99.90
52731;DHT22;38624;53.242;6.974;2023-07-24T05:25:05;16.80;99.90
52731;DHT22;38624;53.242;6.974;2023-07-24T05:27:31;16.90;99.90
52731;DHT22;38624;53.242;6.974;2023-07-24T05:29:57;16.90;99.90
52731;DHT22;38624;53.242;6.974;2023-07-24T05:32:22;16.90;99.90
52731;DHT22;38624;53.242;6.974;2023-07-24T05:34:48;16.90;99.90
52731;DHT22;38624;53.242;6.974;2023-07-24T05:37:14;17.00;99.90
52731;DHT22;38624;53.242;6.974;2023-07-24T05:39:40;17.00;99.90
52731;DHT22;38624;53.242;6.974;2023-07-24T05:42:05;17.10;99.90
52731;DHT22;38624;53.242;6.974;2023-07-24T05:44:31;17.10;99.90
52731;DHT22;38624;53.242;6.974;2023-07-24T05:46:58;17.10;99.90
52731;DHT22;38624;53.242;6.974;2023-07-24T05:49:24;17.20;99.90
52731;DHT22;38624;53.242;6.974;2023-07-24T05:51:49;17.30;99.90
52731;DHT22;38624;53.242;6.974;2023-07-24T05:54:15;17.40;99.90
52731;DHT22;38624;53.242;6.974;2023-07-24T05:56:41;17.50;99.90
52731;DHT22;38624;53.242;6.974;2023-07-24T05:59:06;17.60;99.90
52731;DHT22;38624;53.242;6.974;2023-07-24T06:01:32;17.70;99.90
52731;DHT22;38624;53.242;6.974;2023-07-24T06:03:58;17.70;99.90
52731;DHT22;38624;53.242;6.974;2023-07-24T06:06:23;17.80;99.90
52731;DHT22;38624;53.242;6.974;2023-07-24T06:08:49;17.90;99.90
52731;DHT22;38624;53.242;6.974;2023-07-24T06:11:16;17.90;99.90
52731;DHT22;38624;53.242;6.974;2023-07-24T06:13:42;18.00;99.90
52731;DHT22;38624;53.242;6.974;2023-07-24T06:16:08;18.00;99.90
52731;DHT22;38624;53.242;6.974;2023-07-24T06:18:34;18.00;99.90
52731;DHT22;38624;53.242;6.974;2023-07-24T06:21:00;18.00;99.90
52731;DHT22;38624;53.242;6.974;2023-07-24T06:23:25;17.90;99.90
52731;DHT22;38624;53.242;6.974;2023-07-24T06:25:51;17.90;99.90
52731;DHT22;38624;53.242;6.974;2023-07-24T06:28:18;17.90;99.90
52731;DHT22;38624;53.242;6.974;2023-07-24T06:30:44;17.80;99.90
52731;DHT22;38624;53.242;6.974;2023-07-24T06:33:09;17.80;99.90
52731;DHT22;38624;53.242;6.974;2023-07-24T06:35:35;17.80;99.90
52731;DHT22;38624;53.242;6.974;2023-07-24T06:38:01;17.80;99.90
52731;DHT22;38624;53.242;6.974;2023-07-24T06:40:27;17.90;99.90
52731;DHT22;38624;53.242;6.974;2023-07-24T06:42:52;17.90;99.90
52731;DHT22;38624;53.242;6.974;2023-07-24T06:45:18;18.00;99.90
52731;DHT22;38624;53.242;6.974;2023-07-24T06:47:44;18.10;99.90
52731;DHT22;38624;53.242;6.974;2023-07-24T06:50:10;18.20;99.90
52731;DHT22;38624;53.242;6.974;2023-07-24T06:52:35;18.20;99.90
52731;DHT22;38624;53.242;6.974;2023-07-24T06:55:01;18.30;99.90
52731;DHT22;38624;53.242;6.974;2023-07-24T06:57:27;18.30;99.90
52731;DHT22;38624;53.242;6.974;2023-07-24T06:59:53;18.40;99.90
52731;DHT22;38624;53.242;6.974;2023-07-24T07:02:18;18.40;99.90
52731;DHT22;38624;53.242;6.974;2023-07-24T07:04:44;18.50;99.90
52731;DHT22;38624;53.242;6.974;2023-07-24T07:07:10;18.70;99.90
52731;DHT22;38624;53.242;6.974;2023-07-24T07:09:35;18.80;99.90
52731;DHT22;38624;53.242;6.974;2023-07-24T07:12:01;18.90;99.90
52731;DHT22;38624;53.242;6.974;2023-07-24T07:14:28;19.00;99.90
52731;DHT22;38624;53.242;6.974;2023-07-24T07:16:54;19.40;99.90
52731;DHT22;38624;53.242;6.974;2023-07-24T07:19:19;19.10;99.90
52731;DHT22;38624;53.242;6.974;2023-07-24T07:21:45;19.10;99.90
52731;DHT22;38624;53.242;6.974;2023-07-24T07:24:11;19.10;99.90
52731;DHT22;38624;53.242;6.974;2023-07-24T07:26:36;19.00;99.90
52731;DHT22;38624;53.242;6.974;2023-07-24T07:29:02;18.90;99.90
52731;DHT22;38624;53.242;6.974;2023-07-24T07:31:28;19.00;99.90
52731;DHT22;38624;53.242;6.974;2023-07-24T07:33:53;19.10;99.90
52731;DHT22;38624;53.242;6.974;2023-07-24T07:36:19;19.20;99.90
52731;DHT22;38624;53.242;6.974;2023-07-24T07:38:47;19.20;99.90
52731;DHT22;38624;53.242;6.974;2023-07-24T07:41:13;19.30;99.90
52731;DHT22;38624;53.242;6.974;2023-07-24T07:43:38;19.40;99.90
52731;DHT22;38624;53.242;6.974;2023-07-24T07:46:04;19.40;99.90
52731;DHT22;38624;53.242;6.974;2023-07-24T07:48:30;19.50;99.90
52731;DHT22;38624;53.242;6.974;2023-07-24T07:50:55;19.60;99.90
52731;DHT22;38624;53.242;6.974;2023-07-24T07:53:21;19.60;99.90
52731;DHT22;38624;53.242;6.974;2023-07-24T07:55:55;19.70;99.90
52731;DHT22;38624;53.242;6.974;2023-07-24T07:58:21;19.80;99.90
52731;DHT22;38624;53.242;6.974;2023-07-24T08:00:47;19.80;99.90
52731;DHT22;38624;53.242;6.974;2023-07-24T08:03:12;19.80;99.90
52731;DHT22;38624;53.242;6.974;2023-07-24T08:05:38;19.90;99.90
52731;DHT22;38624;53.242;6.974;2023-07-24T08:08:04;19.80;99.90
52731;DHT22;38624;53.242;6.974;2023-07-24T08:10:29;19.90;99.90
52731;DHT22;38624;53.242;6.974;2023-07-24T08:12:55;19.90;99.90
52731;DHT22;38624;53.242;6.974;2023-07-24T08:15:21;20.00;99.90
52731;DHT22;38624;53.242;6.974;2023-07-24T08:17:46;19.90;99.90
52731;DHT22;38624;53.242;6.974;2023-07-24T08:20:12;20.00;99.90
52731;DHT22;38624;53.242;6.974;2023-07-24T08:22:38;20.10;99.90
52731;DHT22;38624;53.242;6.974;2023-07-24T08:25:04;20.10;99.90
52731;DHT22;38624;53.242;6.974;2023-07-24T08:27:30;20.10;99.90
52731;DHT22;38624;53.242;6.974;2023-07-24T08:29:55;20.10;99.90
52731;DHT22;38624;53.242;6.974;2023-07-24T08:32:21;20.20;99.90
52731;DHT22;38624;53.242;6.974;2023-07-24T08:34:47;20.20;99.90
52731;DHT22;38624;53.242;6.974;2023-07-24T08:37:12;20.10;99.90
52731;DHT22;38624;53.242;6.974;2023-07-24T08:39:38;20.20;99.90
52731;DHT22;38624;53.242;6.974;2023-07-24T08:42:13;20.20;99.90
52731;DHT22;38624;53.242;6.974;2023-07-24T08:44:39;20.20;99.90
52731;DHT22;38624;53.242;6.974;2023-07-24T08:47:09;20.30;99.90
52731;DHT22;38624;53.242;6.974;2023-07-24T08:49:36;20.20;99.90
52731;DHT22;38624;53.242;6.974;2023-07-24T08:52:02;20.30;99.90
52731;DHT22;38624;53.242;6.974;2023-07-24T08:54:30;20.50;99.90
52731;DHT22;38624;53.242;6.974;2023-07-24T08:56:56;20.60;99.90
52731;DHT22;38624;53.242;6.974;2023-07-24T08:59:21;20.80;99.90
52731;DHT22;38624;53.242;6.974;2023-07-24T09:01:47;20.90;99.90
52731;DHT22;38624;53.242;6.974;2023-07-24T09:04:13;21.00;99.90
52731;DHT22;38624;53.242;6.974;2023-07-24T09:06:39;20.80;99.90
52731;DHT22;38624;53.242;6.974;2023-07-24T09:09:15;20.80;99.90
52731;DHT22;38624;53.242;6.974;2023-07-24T09:11:49;20.90;99.90
52731;DHT22;38624;53.242;6.974;2023-07-24T09:14:28;21.10;99.90
52731;DHT22;38624;53.242;6.974;2023-07-24T09:17:06;21.20;99.90
52731;DHT22;38624;53.242;6.974;2023-07-24T09:19:33;21.20;99.90
52731;DHT22;38624;53.242;6.974;2023-07-24T09:22:09;21.20;99.90
52731;DHT22;38624;53.242;6.974;2023-07-24T09:24:36;21.10;99.90
52731;DHT22;38624;53.242;6.974;2023-07-24T09:27:05;20.90;99.90
52731;DHT22;38624;53.242;6.974;2023-07-24T09:29:32;20.90;99.90
52731;DHT22;38624;53.242;6.974;2023-07-24T09:32:01;21.00;99.90
52731;DHT22;38624;53.242;6.974;2023-07-24T09:34:27;20.90;99.90
52731;DHT22;38624;53.242;6.974;2023-07-24T09:36:53;21.00;99.90
52731;DHT22;38624;53.242;6.974;2023-07-24T09:39:26;21.00;99.90
52731;DHT22;38624;53.242;6.974;2023-07-24T09:41:52;21.30;99.90
52731;DHT22;38624;53.242;6.974;2023-07-24T09:44:18;21.60;99.90
52731;DHT22;38624;53.242;6.974;2023-07-24T09:46:44;21.80;99.90
52731;DHT22;38624;53.242;6.974;2023-07-24T09:49:10;21.90;99.90
52731;DHT22;38624;53.242;6.974;2023-07-24T09:51:37;21.80;99.90
52731;DHT22;38624;53.242;6.974;2023-07-24T09:54:25;21.80;99.90
52731;DHT22;38624;53.242;6.974;2023-07-24T09:56:53;22.00;99.90
52731;DHT22;38624;53.242;6.974;2023-07-24T09:59:21;22.20;99.90
52731;DHT22;38624;53.242;6.974;2023-07-24T10:01:47;22.30;99.90
52731;DHT22;38624;53.242;6.974;2023-07-24T10:04:15;22.30;99.90
52731;DHT22;38624;53.242;6.974;2023-07-24T10:06:42;22.20;99.90
52731;DHT22;38624;53.242;6.974;2023-07-24T10:09:09;22.40;99.90
52731;DHT22;38624;53.242;6.974;2023-07-24T10:11:35;22.60;99.90
52731;DHT22;38624;53.242;6.974;2023-07-24T10:14:01;22.80;99.90
52731;DHT22;38624;53.242;6.974;2023-07-24T10:16:27;22.90;99.90
52731;DHT22;38624;53.242;6.974;2023-07-24T10:18:53;22.90;99.90
52731;DHT22;38624;53.242;6.974;2023-07-24T10:21:27;22.60;99.90
52731;DHT22;38624;53.242;6.974;2023-07-24T10:23:52;22.50;99.90
52731;DHT22;38624;53.242;6.974;2023-07-24T10:26:25;22.60;99.90
52731;DHT22;38624;53.242;6.974;2023-07-24T10:28:51;22.40;99.90
52731;DHT22;38624;53.242;6.974;2023-07-24T10:31:22;22.00;99.90
52731;DHT22;38624;53.242;6.974;2023-07-24T10:33:48;22.00;99.90
52731;DHT22;38624;53.242;6.974;2023-07-24T10:36:18;22.10;99.90
52731;DHT22;38624;53.242;6.974;2023-07-24T10:38:45;21.90;99.90
52731;DHT22;38624;53.242;6.974;2023-07-24T10:41:12;22.10;99.90
52731;DHT22;38624;53.242;6.974;2023-07-24T10:46:06;22.60;99.90
52731;DHT22;38624;53.242;6.974;2023-07-24T10:48:32;22.90;99.90
52731;DHT22;38624;53.242;6.974;2023-07-24T10:50:58;22.70;99.90
52731;DHT22;38624;53.242;6.974;2023-07-24T10:53:23;22.50;99.90
52731;DHT22;38624;53.242;6.974;2023-07-24T10:55:51;22.30;99.90
52731;DHT22;38624;53.242;6.974;2023-07-24T10:58:16;22.10;99.90
52731;DHT22;38624;53.242;6.974;2023-07-24T11:00:43;22.10;99.90
52731;DHT22;38624;53.242;6.974;2023-07-24T11:03:10;22.30;99.90
52731;DHT22;38624;53.242;6.974;2023-07-24T11:05:39;22.40;99.90
52731;DHT22;38624;53.242;6.974;2023-07-24T11:08:24;22.30;99.90
52731;DHT22;38624;53.242;6.974;2023-07-24T11:10:52;22.30;99.90
52731;DHT22;38624;53.242;6.974;2023-07-24T11:13:25;22.30;99.90
52731;DHT22;38624;53.242;6.974;2023-07-24T11:15:53;22.40;99.90
52731;DHT22;38624;53.242;6.974;2023-07-24T11:18:19;22.40;99.90
52731;DHT22;38624;53.242;6.974;2023-07-24T11:20:52;22.80;99.90
52731;DHT22;38624;53.242;6.974;2023-07-24T11:23:18;23.00;99.90
52731;DHT22;38624;53.242;6.974;2023-07-24T11:25:44;23.20;99.90
52731;DHT22;38624;53.242;6.974;2023-07-24T11:28:12;23.50;99.90
52731;DHT22;38624;53.242;6.974;2023-07-24T11:30:38;23.80;99.90
52731;DHT22;38624;53.242;6.974;2023-07-24T11:33:06;23.70;99.90
52731;DHT22;38624;53.242;6.974;2023-07-24T11:35:33;23.50;99.90
52731;DHT22;38624;53.242;6.974;2023-07-24T11:38:00;23.20;99.90
52731;DHT22;38624;53.242;6.974;2023-07-24T11:40:35;22.90;99.90
52731;DHT22;38624;53.242;6.974;2023-07-24T11:43:02;22.80;99.90
52731;DHT22;38624;53.242;6.974;2023-07-24T11:45:40;22.60;99.90
52731;DHT22;38624;53.242;6.974;2023-07-24T11:48:09;22.10;99.90
52731;DHT22;38624;53.242;6.974;2023-07-24T11:50:42;21.70;99.90
52731;DHT22;38624;53.242;6.974;2023-07-24T11:53:19;21.60;99.90
52731;DHT22;38624;53.242;6.974;2023-07-24T11:55:44;21.50;99.90
52731;DHT22;38624;53.242;6.974;2023-07-24T11:58:14;21.60;99.90
52731;DHT22;38624;53.242;6.974;2023-07-24T12:00:41;21.70;99.90
52731;DHT22;38624;53.242;6.974;2023-07-24T12:03:07;21.60;99.90
52731;DHT22;38624;53.242;6.974;2023-07-24T12:05:40;21.30;99.90
52731;DHT22;38624;53.242;6.974;2023-07-24T12:08:07;21.30;99.90
52731;DHT22;38624;53.242;6.974;2023-07-24T12:10:39;21.30;99.90
52731;DHT22;38624;53.242;6.974;2023-07-24T12:13:06;21.30;99.90
52731;DHT22;38624;53.242;6.974;2023-07-24T12:15:31;21.40;99.90
52731;DHT22;38624;53.242;6.974;2023-07-24T12:17:59;21.50;99.90
52731;DHT22;38624;53.242;6.974;2023-07-24T12:20:27;21.70;99.90
52731;DHT22;38624;53.242;6.974;2023-07-24T12:22:53;21.70;99.90
52731;DHT22;38624;53.242;6.974;2023-07-24T12:25:19;21.80;99.90
52731;DHT22;38624;53.242;6.974;2023-07-24T12:27:46;21.80;99.90
52731;DHT22;38624;53.242;6.974;2023-07-24T12:30:13;21.80;99.90
52731;DHT22;38624;53.242;6.974;2023-07-24T12:32:38;21.60;99.90
52731;DHT22;38624;53.242;6.974;2023-07-24T12:35:05;21.40;99.90
52731;DHT22;38624;53.242;6.974;2023-07-24T12:37:31;21.10;99.90
52731;DHT22;38624;53.242;6.974;2023-07-24T12:39:56;20.80;99.90
52731;DHT22;38624;53.242;6.974;2023-07-24T12:42:22;21.00;99.90
52731;DHT22;38624;53.242;6.974;2023-07-24T12:44:48;20.90;99.90
52731;DHT22;38624;53.242;6.974;2023-07-24T12:47:14;20.90;99.90
52731;DHT22;38624;53.242;6.974;2023-07-24T12:49:40;21.00;99.90
52731;DHT22;38624;53.242;6.974;2023-07-24T12:52:06;21.30;99.90
52731;DHT22;38624;53.242;6.974;2023-07-24T12:54:34;21.60;99.90
52731;DHT22;38624;53.242;6.974;2023-07-24T12:57:01;21.90;99.90
52731;DHT22;38624;53.242;6.974;2023-07-24T12:59:28;22.00;99.90
52731;DHT22;38624;53.242;6.974;2023-07-24T13:01:53;21.80;99.90
52731;DHT22;38624;53.242;6.974;2023-07-24T13:04:20;21.50;99.90
52731;DHT22;38624;53.242;6.974;2023-07-24T13:06:46;20.00;99.90
52731;DHT22;38624;53.242;6.974;2023-07-24T13:09:12;19.40;99.90
52731;DHT22;38624;53.242;6.974;2023-07-24T13:11:37;19.50;99.90
52731;DHT22;38624;53.242;6.974;2023-07-24T13:14:03;18.00;99.90
52731;DHT22;38624;53.242;6.974;2023-07-24T13:16:29;17.40;99.90
52731;DHT22;38624;53.242;6.974;2023-07-24T13:18:55;17.00;99.90
52731;DHT22;38624;53.242;6.974;2023-07-24T13:21:21;17.10;99.90
52731;DHT22;38624;53.242;6.974;2023-07-24T13:23:46;16.90;99.90
52731;DHT22;38624;53.242;6.974;2023-07-24T13:26:13;16.80;99.90
52731;DHT22;38624;53.242;6.974;2023-07-24T13:28:42;16.90;99.90
52731;DHT22;38624;53.242;6.974;2023-07-24T13:31:26;17.10;99.90
52731;DHT22;38624;53.242;6.974;2023-07-24T13:33:53;17.10;99.90
52731;DHT22;38624;53.242;6.974;2023-07-24T13:36:19;17.50;99.90
52731;DHT22;38624;53.242;6.974;2023-07-24T13:38:45;17.70;99.90
52731;DHT22;38624;53.242;6.974;2023-07-24T13:41:10;17.90;99.90
52731;DHT22;38624;53.242;6.974;2023-07-24T13:43:36;18.50;99.90
52731;DHT22;38624;53.242;6.974;2023-07-24T13:46:02;18.60;99.90
52731;DHT22;38624;53.242;6.974;2023-07-24T13:48:28;18.50;99.90
52731;DHT22;38624;53.242;6.974;2023-07-24T13:50:54;18.40;99.90
52731;DHT22;38624;53.242;6.974;2023-07-24T13:53:21;18.00;99.90
52731;DHT22;38624;53.242;6.974;2023-07-24T13:55:47;18.00;99.90
52731;DHT22;38624;53.242;6.974;2023-07-24T13:58:13;17.90;99.90
52731;DHT22;38624;53.242;6.974;2023-07-24T14:00:38;17.80;99.90
52731;DHT22;38624;53.242;6.974;2023-07-24T14:03:04;17.80;99.90
52731;DHT22;38624;53.242;6.974;2023-07-24T14:05:30;17.70;99.90
52731;DHT22;38624;53.242;6.974;2023-07-24T14:07:55;17.70;99.90
52731;DHT22;38624;53.242;6.974;2023-07-24T14:10:21;17.50;99.90
52731;DHT22;38624;53.242;6.974;2023-07-24T14:12:47;17.50;99.90
52731;DHT22;38624;53.242;6.974;2023-07-24T14:15:12;17.50;99.90
52731;DHT22;38624;53.242;6.974;2023-07-24T14:17:38;17.60;99.90
52731;DHT22;38624;53.242;6.974;2023-07-24T14:20:05;17.60;99.90
52731;DHT22;38624;53.242;6.974;2023-07-24T14:22:31;17.60;99.90
52731;DHT22;38624;53.242;6.974;2023-07-24T14:24:56;17.50;99.90
52731;DHT22;38624;53.242;6.974;2023-07-24T14:27:22;17.40;99.90
52731;DHT22;38624;53.242;6.974;2023-07-24T14:29:48;16.90;99.90
52731;DHT22;38624;53.242;6.974;2023-07-24T14:32:14;16.80;99.90
52731;DHT22;38624;53.242;6.974;2023-07-24T14:34:41;16.80;99.90
52731;DHT22;38624;53.242;6.974;2023-07-24T14:37:07;16.60;99.90
52731;DHT22;38624;53.242;6.974;2023-07-24T14:39:32;16.40;99.90
52731;DHT22;38624;53.242;6.974;2023-07-24T14:41:58;16.50;99.90
52731;DHT22;38624;53.242;6.974;2023-07-24T14:44:25;16.50;99.90
52731;DHT22;38624;53.242;6.974;2023-07-24T14:46:51;16.30;99.90
52731;DHT22;38624;53.242;6.974;2023-07-24T14:49:16;16.50;99.90
52731;DHT22;38624;53.242;6.974;2023-07-24T14:51:42;16.60;99.90
52731;DHT22;38624;53.242;6.974;2023-07-24T14:54:08;16.80;99.90
52731;DHT22;38624;53.242;6.974;2023-07-24T14:56:33;16.70;99.90
52731;DHT22;38624;53.242;6.974;2023-07-24T14:58:59;16.80;99.90
52731;DHT22;38624;53.242;6.974;2023-07-24T15:01:26;17.00;99.90
52731;DHT22;38624;53.242;6.974;2023-07-24T15:03:53;16.90;99.90
52731;DHT22;38624;53.242;6.974;2023-07-24T15:06:19;17.20;99.90
52731;DHT22;38624;53.242;6.974;2023-07-24T15:08:44;17.30;99.90
52731;DHT22;38624;53.242;6.974;2023-07-24T15:11:10;17.40;99.90
52731;DHT22;38624;53.242;6.974;2023-07-24T15:13:38;17.30;99.90
52731;DHT22;38624;53.242;6.974;2023-07-24T15:16:04;17.60;99.90
52731;DHT22;38624;53.242;6.974;2023-07-24T15:18:30;18.00;99.90
52731;DHT22;38624;53.242;6.974;2023-07-24T15:20:56;17.90;99.90
52731;DHT22;38624;53.242;6.974;2023-07-24T15:23:22;17.50;99.90
52731;DHT22;38624;53.242;6.974;2023-07-24T15:25:48;17.70;99.90
52731;DHT22;38624;53.242;6.974;2023-07-24T15:28:14;18.00;99.90
52731;DHT22;38624;53.242;6.974;2023-07-24T15:30:39;17.80;99.90